createdAt,value
2023-05-02T00:02:18.712Z,75.45
2023-05-02T00:04:46.995Z,74.68
2023-05-02T00:07:15.429Z,75.21
2023-05-02T00:09:43.726Z,74.79
2023-05-02T00:12:11.886Z,74.69
2023-05-02T00:14:39.989Z,75.15
2023-05-02T00:17:08.289Z,75.92
2023-05-02T00:19:40.973Z,75.48
2023-05-02T00:22:09.226Z,75.83
2023-05-02T00:24:37.466Z,76.19
2023-05-02T00:27:06.220Z,76.15
2023-05-02T00:29:34.461Z,76.62
2023-05-02T00:32:02.905Z,76.17
2023-05-02T00:34:31.734Z,76.46
2023-05-02T00:37:01.466Z,76.88
2023-05-02T00:39:29.667Z,76.64
2023-05-02T00:41:58.682Z,77.03
2023-05-02T00:44:26.971Z,76.90
2023-05-02T00:46:55.876Z,76.74
2023-05-02T00:49:24.822Z,75.69
2023-05-02T00:51:54.351Z,75.82
2023-05-02T00:54:24.136Z,75.84
2023-05-02T00:56:52.424Z,74.99
2023-05-02T00:59:21.234Z,74.19
2023-05-02T01:02:06.675Z,74.02
2023-05-02T01:04:51.617Z,73.79
2023-05-02T01:07:37.042Z,74.48
2023-05-02T01:10:20.563Z,74.28
2023-05-02T01:12:57.834Z,73.94
2023-05-02T01:15:26.722Z,74.36
2023-05-02T01:17:57.269Z,74.65
2023-05-02T01:20:30.244Z,74.31
2023-05-02T01:23:11.519Z,74.27
2023-05-02T01:26:02.352Z,73.98
2023-05-02T01:28:48.243Z,74.23
2023-05-02T01:31:17.776Z,75.28
2023-05-02T01:33:48.999Z,75.54
2023-05-02T01:36:18.509Z,76.17
2023-05-02T01:38:47.892Z,76.06
2023-05-02T01:41:17.177Z,75.33
2023-05-02T01:43:48.196Z,75.54
2023-05-02T01:46:16.792Z,74.97
2023-05-02T01:48:49.619Z,75.50
2023-05-02T01:51:19.962Z,75.80
2023-05-02T01:53:50.933Z,76.36
2023-05-02T01:56:21.444Z,76.67
2023-05-02T01:58:54.134Z,76.69
2023-05-02T02:01:24.939Z,76.95
2023-05-02T02:03:55.880Z,76.31
2023-05-02T02:06:25.330Z,75.46
2023-05-02T02:08:53.587Z,75.84
2023-05-02T02:11:28.538Z,76.70
2023-05-02T02:14:06.085Z,77.88
2023-05-02T02:16:39.101Z,78.40
2023-05-02T02:19:11.455Z,78.01
2023-05-02T02:21:41.591Z,77.77
2023-05-02T02:24:11.122Z,77.98
2023-05-02T02:26:39.491Z,77.60
2023-05-02T02:29:10.732Z,77.00
2023-05-02T02:31:39.872Z,76.83
2023-05-02T02:34:08.704Z,75.81
2023-05-02T02:36:46.129Z,75.57
2023-05-02T02:39:29.470Z,75.40
2023-05-02T02:42:15.298Z,75.32
2023-05-02T02:44:56.221Z,75.97
2023-05-02T02:47:32.835Z,75.71
2023-05-02T02:50:17.740Z,75.58
2023-05-02T02:52:56.669Z,75.75
2023-05-02T02:55:38.566Z,75.92
2023-05-02T02:58:21.182Z,75.73
2023-05-02T03:00:51.781Z,75.81
2023-05-02T03:03:25.045Z,75.25
2023-05-02T03:05:53.350Z,75.93
2023-05-02T03:08:21.962Z,76.32
2023-05-02T03:10:50.222Z,75.92
2023-05-02T03:13:18.817Z,76.51
2023-05-02T03:16:35.176Z,76.02
2023-05-02T03:19:05.006Z,75.36
2023-05-02T03:21:34.505Z,74.57
2023-05-02T03:24:11.021Z,74.30
2023-05-02T03:26:39.358Z,74.59
2023-05-02T03:29:10.831Z,73.82
2023-05-02T03:31:44.037Z,73.95
2023-05-02T03:34:13.710Z,74.22
2023-05-02T03:36:43.089Z,73.49
2023-05-02T03:39:12.319Z,73.13
2023-05-02T03:41:42.401Z,73.09
2023-05-02T03:44:13.488Z,72.98
2023-05-02T03:46:43.405Z,71.60
2023-05-02T03:49:13.685Z,70.89
2023-05-02T03:51:44.688Z,71.32
2023-05-02T03:54:14.181Z,70.87
2023-05-02T03:56:45.052Z,70.76
2023-05-02T03:59:22.510Z,71.32
2023-05-02T04:01:52.743Z,70.17
2023-05-02T04:04:26.180Z,70.46
2023-05-02T04:06:56.264Z,69.87
2023-05-02T04:09:25.559Z,70.73
2023-05-02T04:12:20.074Z,70.40
2023-05-02T04:14:51.110Z,70.46
2023-05-02T04:17:22.067Z,70.04
2023-05-02T04:19:51.582Z,70.62
2023-05-02T04:22:22.006Z,70.66
2023-05-02T04:24:54.818Z,71.29
2023-05-02T04:27:23.830Z,70.23
2023-05-02T04:29:53.393Z,69.90
2023-05-02T04:32:23.372Z,70.08
2023-05-02T04:34:52.124Z,70.36
2023-05-02T04:37:21.789Z,70.26
2023-05-02T04:39:51.550Z,70.35
2023-05-02T04:42:24.303Z,70.09
2023-05-02T04:45:02.073Z,70.01
2023-05-02T04:47:31.800Z,69.04
2023-05-02T04:50:01.464Z,69.38
2023-05-02T04:52:31.079Z,69.50
2023-05-02T04:55:00.783Z,69.60
2023-05-02T04:57:29.630Z,69.81
2023-05-02T05:00:01.054Z,68.96
2023-05-02T05:02:31.544Z,69.40
2023-05-02T05:05:02.062Z,69.38
2023-05-02T05:07:30.533Z,69.35
2023-05-02T05:09:59.534Z,68.43
2023-05-02T05:12:31.673Z,68.58
2023-05-02T05:15:00.270Z,68.52
2023-05-02T05:17:31.444Z,68.57
2023-05-02T05:20:00.794Z,68.03
2023-05-02T05:22:29.212Z,68.25
2023-05-02T05:24:57.511Z,67.69
2023-05-02T05:27:30.380Z,68.08
2023-05-02T05:29:59.290Z,66.92
2023-05-02T05:32:29.061Z,66.48
2023-05-02T05:34:58.695Z,65.48
2023-05-02T05:37:28.836Z,66.30
2023-05-02T05:39:59.144Z,65.90
2023-05-02T05:42:27.558Z,65.36
2023-05-02T05:45:00.642Z,64.91
2023-05-02T05:47:29.257Z,64.82
2023-05-02T05:50:00.848Z,63.24
2023-05-02T05:52:31.381Z,62.43
2023-05-02T05:55:02.072Z,62.80
2023-05-02T05:57:31.080Z,62.92
2023-05-02T05:59:59.577Z,62.42
2023-05-02T06:02:28.007Z,61.74
2023-05-02T06:04:57.384Z,61.83
2023-05-02T06:07:28.496Z,61.65
2023-05-02T06:09:56.680Z,61.63
2023-05-02T06:12:24.892Z,61.72
2023-05-02T06:14:53.696Z,60.73
2023-05-02T06:17:22.795Z,60.62
2023-05-02T06:19:51.352Z,60.65
2023-05-02T06:22:19.611Z,61.26
2023-05-02T06:24:49.069Z,59.79
2023-05-02T06:27:17.589Z,59.70
2023-05-02T06:29:45.637Z,59.79
2023-05-02T06:32:13.837Z,60.31
2023-05-02T06:34:41.873Z,59.92
2023-05-02T06:37:10.189Z,59.65
2023-05-02T06:39:38.383Z,59.60
2023-05-02T06:42:07.918Z,59.95
2023-05-02T06:44:36.712Z,58.79
2023-05-02T06:47:06.342Z,58.47
2023-05-02T06:49:34.734Z,58.65
2023-05-02T06:52:02.838Z,58.35
2023-05-02T06:54:31.071Z,57.86
2023-05-02T06:57:00.449Z,55.56
2023-05-02T06:59:29.928Z,54.53
2023-05-02T07:01:58.070Z,55.91
2023-05-02T07:04:27.722Z,55.58
2023-05-02T07:06:56.021Z,54.58
2023-05-02T07:09:24.251Z,53.39
2023-05-02T07:11:52.325Z,52.95
2023-05-02T07:14:20.957Z,53.72
2023-05-02T07:16:54.391Z,51.96
2023-05-02T07:19:22.539Z,50.76
2023-05-02T07:21:50.681Z,49.99
2023-05-02T07:24:18.924Z,50.75
2023-05-02T07:26:47.120Z,49.69
2023-05-02T07:29:15.265Z,51.48
2023-05-02T07:31:43.628Z,50.97
2023-05-02T07:34:13.208Z,51.57
2023-05-02T07:36:41.403Z,49.52
2023-05-02T07:39:10.474Z,48.59
2023-05-02T07:41:38.695Z,46.63
2023-05-02T07:44:06.959Z,45.68
2023-05-02T07:46:35.307Z,47.11
2023-05-02T07:49:06.251Z,47.08
2023-05-02T07:51:35.793Z,46.75
2023-05-02T07:54:04.076Z,47.38
2023-05-02T07:56:32.798Z,47.87
2023-05-02T07:59:00.868Z,46.72
2023-05-02T08:01:30.045Z,46.10
2023-05-02T08:03:58.434Z,45.01
2023-05-02T08:06:26.821Z,44.70
2023-05-02T08:08:56.340Z,43.98
2023-05-02T08:11:25.512Z,44.94
2023-05-02T08:13:53.888Z,45.70
2023-05-02T08:16:22.982Z,46.64
2023-05-02T08:18:51.130Z,45.98
2023-05-02T08:21:19.313Z,45.02
2023-05-02T08:23:47.447Z,43.46
2023-05-02T08:26:19.230Z,43.30
2023-05-02T08:28:47.814Z,44.02
2023-05-02T08:31:18.850Z,43.15
2023-05-02T08:33:47.210Z,44.52
2023-05-02T08:36:17.387Z,41.79
2023-05-02T08:38:46.779Z,43.50
2023-05-02T08:41:19.100Z,42.33
2023-05-02T08:43:50.432Z,44.63
2023-05-02T08:46:19.169Z,46.49
2023-05-02T08:48:49.103Z,47.07
2023-05-02T08:53:48.116Z,47.80
2023-05-02T08:56:17.607Z,47.59
2023-05-02T08:58:45.965Z,44.69
2023-05-02T09:01:18.208Z,45.55
2023-05-02T09:03:48.371Z,45.74
2023-05-02T09:06:19.041Z,45.71
2023-05-02T09:08:49.954Z,44.14
2023-05-02T09:11:21.409Z,44.10
2023-05-02T09:13:51.029Z,43.95
2023-05-02T09:16:22.757Z,43.43
2023-05-02T09:18:52.364Z,44.22
2023-05-02T09:21:22.489Z,44.08
2023-05-02T09:23:53.120Z,45.58
2023-05-02T09:26:24.896Z,43.63
2023-05-02T09:28:54.484Z,43.27
2023-05-02T09:31:49.611Z,43.34
2023-05-02T09:34:18.279Z,43.24
2023-05-02T09:36:48.403Z,40.92
2023-05-02T09:39:18.865Z,39.54
2023-05-02T09:41:50.871Z,39.10
2023-05-02T09:44:20.851Z,36.76
2023-05-02T09:46:54.203Z,37.09
2023-05-02T09:49:41.931Z,38.66
2023-05-02T09:52:14.526Z,38.57
2023-05-02T09:54:43.085Z,39.32
2023-05-02T09:57:12.710Z,38.93
2023-05-02T09:59:41.829Z,37.95
2023-05-02T10:02:12.044Z,39.87
2023-05-02T10:04:41.918Z,40.37
2023-05-02T10:07:11.536Z,40.18
2023-05-02T10:09:45.899Z,41.61
2023-05-02T10:12:17.655Z,38.24
2023-05-02T10:14:51.542Z,38.70
2023-05-02T10:17:29.523Z,39.38
2023-05-02T10:20:02.140Z,39.01
2023-05-02T10:22:31.722Z,35.85
2023-05-02T10:25:02.189Z,33.79
2023-05-02T10:27:33.822Z,34.79
2023-05-02T10:30:04.352Z,37.09
2023-05-02T10:32:35.327Z,36.18
2023-05-02T10:35:06.629Z,37.14
2023-05-02T10:37:39.441Z,36.75
2023-05-02T10:40:12.416Z,37.08
2023-05-02T10:42:46.683Z,38.60
2023-05-02T10:45:33.339Z,39.11
2023-05-02T10:48:20.200Z,39.29
2023-05-02T10:50:51.272Z,37.30
2023-05-02T10:53:31.640Z,37.14
2023-05-02T10:56:22.282Z,37.40
2023-05-02T10:58:53.485Z,37.95
2023-05-02T11:01:36.979Z,39.05
2023-05-02T11:04:07.696Z,37.52
2023-05-02T11:06:37.362Z,38.60
2023-05-02T11:09:34.367Z,39.28
2023-05-02T11:12:04.889Z,37.95
2023-05-02T11:14:55.188Z,38.85
2023-05-02T11:17:23.428Z,36.80
2023-05-02T11:20:26.057Z,36.93
2023-05-02T11:22:56.463Z,37.83
2023-05-02T11:25:33.501Z,35.11
2023-05-02T11:28:02.711Z,34.59
2023-05-02T11:30:48.657Z,37.44
2023-05-02T11:33:21.973Z,36.35
2023-05-02T11:35:51.992Z,38.77
2023-05-02T11:38:23.738Z,39.19
2023-05-02T11:41:00.312Z,39.35
2023-05-02T11:43:32.851Z,38.16
2023-05-02T11:46:07.760Z,37.91
2023-05-02T11:48:46.126Z,36.25
2023-05-02T11:51:27.036Z,36.82
2023-05-02T11:53:59.040Z,36.49
2023-05-02T11:56:32.142Z,36.45
2023-05-02T11:59:06.694Z,35.68
2023-05-02T12:01:36.583Z,35.00
2023-05-02T12:04:12.050Z,36.81
2023-05-02T12:06:55.603Z,36.45
2023-05-02T12:09:24.798Z,36.55
2023-05-02T12:11:59.395Z,36.87
2023-05-02T12:14:35.968Z,37.34
2023-05-02T12:17:07.418Z,37.25
2023-05-02T12:19:37.944Z,35.35
2023-05-02T12:22:07.894Z,35.19
2023-05-02T12:24:43.570Z,36.61
2023-05-02T12:27:24.683Z,36.79
2023-05-02T12:29:54.154Z,36.55
2023-05-02T12:32:45.335Z,34.16
2023-05-02T12:35:30.598Z,36.16
2023-05-02T12:38:16.275Z,34.21
2023-05-02T12:40:57.667Z,34.71
2023-05-02T12:43:26.031Z,34.74
2023-05-02T12:46:13.876Z,34.88
2023-05-02T12:48:44.920Z,36.33
2023-05-02T12:51:28.539Z,35.24
2023-05-02T12:53:56.953Z,38.48
2023-05-02T12:56:27.700Z,35.07
2023-05-02T12:58:56.105Z,36.96
2023-05-02T13:01:24.433Z,35.66
2023-05-02T13:03:54.043Z,34.38
2023-05-02T13:06:22.317Z,35.22
2023-05-02T13:08:50.566Z,34.91
2023-05-02T13:11:21.781Z,36.49
2023-05-02T13:13:50.013Z,35.61
2023-05-02T13:16:18.488Z,36.10
2023-05-02T13:18:48.145Z,34.75
2023-05-02T13:21:20.243Z,35.09
2023-05-02T13:23:50.473Z,36.23
2023-05-02T13:26:18.671Z,35.74
2023-05-02T13:28:46.828Z,34.61
2023-05-02T13:31:15.250Z,33.42
2023-05-02T13:33:43.504Z,35.15
2023-05-02T13:36:18.839Z,34.54
2023-05-02T13:38:47.649Z,37.37
2023-05-02T13:41:15.776Z,34.93
2023-05-02T13:43:43.929Z,33.80
2023-05-02T13:46:13.335Z,34.13
2023-05-02T13:48:47.005Z,33.40
2023-05-02T13:51:15.184Z,31.68
2023-05-02T13:53:44.706Z,32.70
2023-05-02T13:56:12.959Z,33.89
2023-05-02T13:58:41.239Z,33.74
2023-05-02T14:01:09.770Z,32.77
2023-05-02T14:03:38.255Z,34.75
2023-05-02T14:06:06.733Z,32.71
2023-05-02T14:08:34.985Z,35.19
2023-05-02T14:11:09.412Z,34.36
2023-05-02T14:13:40.316Z,33.61
2023-05-02T14:16:09.035Z,36.17
2023-05-02T14:18:37.417Z,33.81
2023-05-02T14:21:06.357Z,33.17
2023-05-02T14:23:35.327Z,36.47
2023-05-02T14:26:12.669Z,34.89
2023-05-02T14:28:41.295Z,34.96
2023-05-02T14:31:09.743Z,35.11
2023-05-02T14:33:37.971Z,34.28
2023-05-02T14:36:06.816Z,37.10
2023-05-02T14:38:35.122Z,33.42
2023-05-02T14:41:05.962Z,32.20
2023-05-02T14:43:35.781Z,32.84
2023-05-02T14:46:04.213Z,32.26
2023-05-02T14:48:32.389Z,33.64
2023-05-02T14:51:04.106Z,33.25
2023-05-02T14:53:32.502Z,33.50
2023-05-02T14:56:00.757Z,33.67
2023-05-02T14:58:30.244Z,33.27
2023-05-02T15:00:58.529Z,34.27
2023-05-02T15:03:26.803Z,35.05
2023-05-02T15:05:55.270Z,35.75
2023-05-02T15:08:23.548Z,35.85
2023-05-02T15:10:51.889Z,31.15
2023-05-02T15:13:20.283Z,32.33
2023-05-02T15:15:49.847Z,32.02
2023-05-02T15:18:18.027Z,33.99
2023-05-02T15:20:46.320Z,35.86
2023-05-02T15:23:14.808Z,35.79
2023-05-02T15:25:42.958Z,34.00
2023-05-02T15:28:11.277Z,32.90
2023-05-02T15:30:39.635Z,31.95
2023-05-02T15:33:09.326Z,32.05
2023-05-02T15:35:37.875Z,33.41
2023-05-02T15:38:07.009Z,34.21
2023-05-02T15:40:35.647Z,33.99
2023-05-02T15:43:03.828Z,34.22
2023-05-02T15:45:32.369Z,36.21
2023-05-02T15:48:01.104Z,33.09
2023-05-02T15:50:30.649Z,34.34
2023-05-02T15:52:58.868Z,34.15
2023-05-02T15:55:27.147Z,33.85
2023-05-02T15:57:55.459Z,34.37
2023-05-02T16:00:26.191Z,35.57
2023-05-02T16:02:55.585Z,35.75
2023-05-02T16:05:23.858Z,35.05
2023-05-02T16:07:54.052Z,35.85
2023-05-02T16:10:22.724Z,35.60
2023-05-02T16:12:50.995Z,36.49
2023-05-02T16:15:19.190Z,35.24
2023-05-02T16:17:48.834Z,34.84
2023-05-02T16:20:17.814Z,36.44
2023-05-02T16:22:46.869Z,36.64
2023-05-02T16:25:18.678Z,35.50
2023-05-02T16:27:46.822Z,36.23
2023-05-02T16:30:17.511Z,36.84
2023-05-02T16:32:45.826Z,36.75
2023-05-02T16:35:15.963Z,37.87
2023-05-02T16:37:44.479Z,38.12
2023-05-02T16:40:13.632Z,38.13
2023-05-02T16:42:45.137Z,37.83
2023-05-02T16:45:13.386Z,38.88
2023-05-02T16:47:44.203Z,37.53
2023-05-02T16:50:12.726Z,38.40
2023-05-02T16:52:40.962Z,38.49
2023-05-02T16:55:09.931Z,38.25
2023-05-02T16:57:39.113Z,38.19
2023-05-02T17:00:14.825Z,39.29
2023-05-02T17:02:43.144Z,40.21
2023-05-02T17:05:12.281Z,39.15
2023-05-02T17:07:40.502Z,38.67
2023-05-02T17:10:11.219Z,39.26
2023-05-02T17:12:40.379Z,40.51
2023-05-02T17:15:11.393Z,39.94
2023-05-02T17:17:39.803Z,40.97
2023-05-02T17:20:10.063Z,41.75
2023-05-02T17:22:41.651Z,41.25
2023-05-02T17:25:11.183Z,41.63
2023-05-02T17:27:41.079Z,40.29
2023-05-02T17:30:15.200Z,40.39
2023-05-02T17:32:43.767Z,41.43
2023-05-02T17:35:14.854Z,42.04
2023-05-02T17:37:42.994Z,43.67
2023-05-02T17:40:12.689Z,42.49
2023-05-02T17:42:43.522Z,42.76
2023-05-02T17:45:17.967Z,41.99
2023-05-02T17:47:46.194Z,41.87
2023-05-02T17:50:14.398Z,42.68
2023-05-02T17:52:42.684Z,43.31
2023-05-02T17:55:13.973Z,43.49
2023-05-02T17:57:42.221Z,42.78
2023-05-02T18:00:12.127Z,43.32
2023-05-02T18:02:44.041Z,43.86
2023-05-02T18:05:12.832Z,44.51
2023-05-02T18:07:41.012Z,45.04
2023-05-02T18:10:10.160Z,44.78
2023-05-02T18:12:38.334Z,45.88
2023-05-02T18:15:09.414Z,45.33
2023-05-02T18:17:38.194Z,45.57
2023-05-02T18:20:10.221Z,46.06
2023-05-02T18:22:39.116Z,45.82
2023-05-02T18:25:08.593Z,46.61
2023-05-02T18:27:36.822Z,46.28
2023-05-02T18:30:09.868Z,46.58
2023-05-02T18:32:42.579Z,46.44
2023-05-02T18:35:12.761Z,46.83
2023-05-02T18:37:41.328Z,46.90
2023-05-02T18:40:13.379Z,47.13
2023-05-02T18:42:47.340Z,46.55
2023-05-02T18:45:20.459Z,46.59
2023-05-02T18:47:49.447Z,47.33
2023-05-02T18:50:23.384Z,47.48
2023-05-02T18:52:53.504Z,47.74
2023-05-02T18:55:25.444Z,48.82
2023-05-02T18:57:55.753Z,48.73
2023-05-02T19:00:25.876Z,48.45
2023-05-02T19:02:57.211Z,49.15
2023-05-02T19:05:28.726Z,50.09
2023-05-02T19:08:00.702Z,50.18
2023-05-02T19:10:31.013Z,51.46
2023-05-02T19:12:59.680Z,51.00
2023-05-02T19:15:28.094Z,50.91
2023-05-02T19:18:01.513Z,51.85
2023-05-02T19:20:33.463Z,52.63
2023-05-02T19:23:18.282Z,52.68
2023-05-02T19:25:50.513Z,53.14
2023-05-02T19:28:23.606Z,52.83
2023-05-02T19:30:57.688Z,53.46
2023-05-02T19:33:25.954Z,53.72
2023-05-02T19:35:58.530Z,53.54
2023-05-02T19:38:31.256Z,54.43
2023-05-02T19:41:02.844Z,55.63
2023-05-02T19:43:31.286Z,55.21
2023-05-02T19:45:59.871Z,55.66
2023-05-02T19:48:28.297Z,56.09
2023-05-02T19:50:57.895Z,55.29
2023-05-02T19:53:26.815Z,55.52
2023-05-02T19:55:54.925Z,55.73
2023-05-02T19:58:31.651Z,55.90
2023-05-02T20:01:01.164Z,55.79
2023-05-02T20:03:29.501Z,56.53
2023-05-02T20:05:59.099Z,56.35
2023-05-02T20:08:28.221Z,56.81
2023-05-02T20:10:57.903Z,56.73
2023-05-02T20:13:26.037Z,56.74
2023-05-02T20:15:55.187Z,57.37
2023-05-02T20:18:23.334Z,57.33
2023-05-02T20:20:51.531Z,57.74
2023-05-02T20:23:21.091Z,57.53
2023-05-02T20:25:49.284Z,58.32
2023-05-02T20:28:17.480Z,57.64
2023-05-02T20:30:45.682Z,58.14
2023-05-02T20:33:16.090Z,57.96
2023-05-02T20:35:45.076Z,58.27
2023-05-02T20:38:13.366Z,58.96
2023-05-02T20:40:43.629Z,59.24
2023-05-02T20:43:12.517Z,59.58
2023-05-02T20:45:40.762Z,58.96
2023-05-02T20:48:09.220Z,59.67
2023-05-02T20:50:40.664Z,59.06
2023-05-02T20:53:09.212Z,60.03
2023-05-02T20:55:37.471Z,60.47
2023-05-02T20:58:06.982Z,60.84
2023-05-02T21:00:35.534Z,61.38
2023-05-02T21:03:07.036Z,60.80
2023-05-02T21:05:35.249Z,60.99
2023-05-02T21:08:03.582Z,61.85
2023-05-02T21:10:31.902Z,61.67
2023-05-02T21:13:00.065Z,61.44
2023-05-02T21:15:30.079Z,61.55
2023-05-02T21:18:02.357Z,61.34
2023-05-02T21:20:30.660Z,61.83
2023-05-02T21:22:58.903Z,61.76
2023-05-02T21:25:27.494Z,62.35
2023-05-02T21:27:57.525Z,62.42
2023-05-02T21:30:25.795Z,62.23
2023-05-02T21:32:55.334Z,62.99
2023-05-02T21:35:23.516Z,63.43
2023-05-02T21:37:51.650Z,63.37
2023-05-02T21:40:22.563Z,63.07
2023-05-02T21:42:51.113Z,63.55
2023-05-02T21:45:19.384Z,63.61
2023-05-02T21:47:47.636Z,64.37
2023-05-02T21:50:17.161Z,63.94
2023-05-02T21:52:47.514Z,63.65
2023-05-02T21:55:17.936Z,63.53
2023-05-02T21:57:46.116Z,63.68
2023-05-02T22:00:17.303Z,63.78
2023-05-02T22:02:45.986Z,63.45
2023-05-02T22:05:17.999Z,63.75
2023-05-02T22:07:53.294Z,64.02
2023-05-02T22:10:22.064Z,63.94
2023-05-02T22:12:53.019Z,64.19
2023-05-02T22:15:21.169Z,64.18
2023-05-02T22:17:50.645Z,64.38
2023-05-02T22:20:20.213Z,64.81
2023-05-02T22:22:48.652Z,64.45
2023-05-02T22:25:16.807Z,64.73
2023-05-02T22:27:50.219Z,65.29
2023-05-02T22:30:18.519Z,65.73
2023-05-02T22:32:48.773Z,66.17
2023-05-02T22:35:18.054Z,66.58
2023-05-02T22:37:47.590Z,66.92
2023-05-02T22:40:16.508Z,66.23
2023-05-02T22:42:44.953Z,66.74
2023-05-02T22:45:13.816Z,66.58
2023-05-02T22:47:44.180Z,66.66
2023-05-02T22:50:16.018Z,66.12
2023-05-02T22:52:49.336Z,67.30
2023-05-02T22:55:18.000Z,67.32
2023-05-02T22:57:46.289Z,67.97
2023-05-02T23:00:15.338Z,67.83
2023-05-02T23:02:45.886Z,68.65
2023-05-02T23:05:14.247Z,67.39
2023-05-02T23:07:42.680Z,67.71
2023-05-02T23:10:15.312Z,67.84
2023-05-02T23:12:46.208Z,67.66
2023-05-02T23:15:14.452Z,67.93
2023-05-02T23:17:42.785Z,67.85
2023-05-02T23:20:19.415Z,68.44
2023-05-02T23:22:47.715Z,68.44
2023-05-02T23:25:17.227Z,67.82
2023-05-02T23:27:45.615Z,68.49
2023-05-02T23:30:14.254Z,68.83
2023-05-02T23:32:42.621Z,69.29
2023-05-02T23:35:12.813Z,69.14
2023-05-02T23:37:42.103Z,69.13
2023-05-02T23:40:11.345Z,68.44
2023-05-02T23:42:41.302Z,69.35
2023-05-02T23:45:11.072Z,69.11
2023-05-02T23:47:39.810Z,68.87
2023-05-02T23:50:11.869Z,69.06
2023-05-02T23:52:40.592Z,69.40
2023-05-02T23:55:11.450Z,69.40
2023-05-02T23:57:41.438Z,69.49
